Time;durP1;ratioP1;P1;durP2;ratioP2;P2;SDS_P1;SDS_P2;PMS_P1;PMS_P2;Temp;Humidity;BMP_temperature;BMP_pressure;BME280_temperature;BME280_humidity;BME280_pressure;Samples;Min_cycle;Max_cycle;Signal;HPM_P1;HPM_P2
2021/07/17 00:01:19;;;;;;;;;;;;;;;;;;4987382;28;1373;-52
2021/07/17 00:03:44;;;;;;;;;;;;;;;;;;4992863;28;1158;-52
2021/07/17 00:06:09;;;;;;;;;;;;;;;;;;4992301;28;1601;-52
2021/07/17 00:08:34;;;;;;;;;;;;;;;;;;4997605;28;1969;-52
2021/07/17 00:11:00;;;;;;;;;;;;;;;;;;5002365;28;1594;-55
2021/07/17 00:13:25;;;;;;;;;;;;;;;;;;5000687;28;1468;-54
2021/07/17 00:15:54;;;;;;;;;;;;;;;;;;5005230;28;1289;-54
2021/07/17 00:18:20;;;;;;;;;;;;;;;;;;5002632;28;1409;-54
2021/07/17 00:20:45;;;;;;;;;;;;;;;;;;5001308;28;1594;-53
2021/07/17 00:23:10;;;;;;;;;;;;;;;;;;5003060;28;1463;-54
2021/07/17 00:25:36;;;;;;;;;;;;;;;;;;5002950;28;1684;-54
2021/07/17 00:28:01;;;;;;;;;;;;;;;;;;5002934;28;1972;-54
2021/07/17 00:30:26;;;;;;;;;;;;;;;;;;5002669;28;1141;-54
2021/07/17 00:32:51;;;;;;;;;;;;;;;;;;5003012;28;1126;-53
2021/07/17 00:35:16;;;;;;;;;;;;;;;;;;5002474;28;1652;-54
2021/07/17 00:37:41;;;;;;;;;;;;;;;;;;5002893;28;1348;-54
2021/07/17 00:40:07;;;;;;;;;;;;;;;;;;5001040;28;1640;-53
2021/07/17 00:42:33;;;;;;;;;;;;;;;;;;5001899;28;1392;-54
2021/07/17 00:44:58;;;;;;;;;;;;;;;;;;5003089;28;1352;-54
2021/07/17 00:47:23;;;;;;;;;;;;;;;;;;5003776;28;1107;-54
2021/07/17 00:49:48;;;;;;;;;;;;;;;;;;4983102;28;1972;-54
2021/07/17 00:52:14;;;;;;;;;;;;;;;;;;5002791;28;1162;-54
2021/07/17 00:54:39;;;;;;;;;;;;;;;;;;5000382;28;1526;-55
2021/07/17 00:57:04;;;;;;;;;;;;;;;;;;4998297;28;1796;-54
2021/07/17 00:59:30;;;;;;;;;;;;;;;;;;4980043;28;1579;-53
2021/07/17 01:01:56;;;;;;;;;;;;;;;;;;4996580;28;1425;-54
2021/07/17 01:04:21;;;;;;;;;;;;;;;;;;4999124;28;1150;-55
2021/07/17 01:06:46;;;;;;;;;;;;;;;;;;5001175;28;1612;-54
2021/07/17 01:09:11;;;;;;;;;;;;;;;;;;5001950;28;1977;-54
2021/07/17 01:11:40;;;;;;;;;;;;;;;;;;4999662;28;1433;-54
2021/07/17 01:14:05;;;;;;;;;;;;;;;;;;5000744;28;1210;-54
2021/07/17 01:16:31;;;;;;;;;;;;;;;;;;5001453;28;1344;-54
2021/07/17 01:18:56;;;;;;;;;;;;;;;;;;5000809;28;1530;-54
2021/07/17 01:21:21;;;;;;;;;;;;;;;;;;5001828;28;1178;-53
2021/07/17 01:23:46;;;;;;;;;;;;;;;;;;5001912;28;1225;-54
2021/07/17 01:26:12;;;;;;;;;;;;;;;;;;4998207;28;2063;-54
2021/07/17 01:28:40;;;;;;;;;;;;;;;;;;5002835;28;1918;-55
2021/07/17 01:31:05;;;;;;;;;;;;;;;;;;5001906;28;1145;-54
2021/07/17 01:33:30;;;;;;;;;;;;;;;;;;4998743;28;1492;-55
2021/07/17 01:35:55;;;;;;;;;;;;;;;;;;5000506;28;1784;-54
2021/07/17 01:38:21;;;;;;;;;;;;;;;;;;5002163;28;1284;-54
2021/07/17 01:40:49;;;;;;;;;;;;;;;;;;5000697;28;1632;-54
2021/07/17 01:43:14;;;;;;;;;;;;;;;;;;5002209;28;1269;-54
2021/07/17 01:45:39;;;;;;;;;;;;;;;;;;5000091;28;1308;-54
2021/07/17 01:48:05;;;;;;;;;;;;;;;;;;5003011;28;1910;-53
2021/07/17 01:50:30;;;;;;;;;;;;;;;;;;4999289;28;1605;-55
2021/07/17 01:52:56;;;;;;;;;;;;;;;;;;5000385;28;1548;-52
2021/07/17 01:55:21;;;;;;;;;;;;;;;;;;4998356;28;1612;-54
2021/07/17 01:57:46;;;;;;;;;;;;;;;;;;5002259;28;1216;-54
2021/07/17 02:00:12;;;;;;;;;;;;;;;;;;5000756;28;1400;-54
2021/07/17 02:02:37;;;;;;;;;;;;;;;;;;5001850;28;1166;-54
2021/07/17 02:05:05;;;;;;;;;;;;;;;;;;4996404;28;1589;-54
2021/07/17 02:07:31;;;;;;;;;;;;;;;;;;5000895;28;1071;-55
2021/07/17 02:09:56;;;;;;;;;;;;;;;;;;4997867;28;1962;-54
2021/07/17 02:12:21;;;;;;;;;;;;;;;;;;4999021;28;1547;-54
2021/07/17 02:14:49;;;;;;;;;;;;;;;;;;5001539;28;1122;-54
2021/07/17 02:17:14;;;;;;;;;;;;;;;;;;4998848;28;1645;-54
2021/07/17 02:19:39;;;;;;;;;;;;;;;;;;5002339;28;1593;-55
2021/07/17 02:22:04;;;;;;;;;;;;;;;;;;5001410;28;1165;-53
2021/07/17 02:24:29;;;;;;;;;;;;;;;;;;4996881;28;1625;-54
2021/07/17 02:26:55;;;;;;;;;;;;;;;;;;5001300;28;1118;-54
2021/07/17 02:29:20;;;;;;;;;;;;;;;;;;5000537;28;1902;-54
2021/07/17 02:31:45;;;;;;;;;;;;;;;;;;5001142;28;1350;-54
2021/07/17 02:34:11;;;;;;;;;;;;;;;;;;4999143;28;1546;-54
2021/07/17 02:36:36;;;;;;;;;;;;;;;;;;5000223;28;1519;-54
2021/07/17 02:39:02;;;;;;;;;;;;;;;;;;5001582;28;1391;-54
2021/07/17 02:41:27;;;;;;;;;;;;;;;;;;4980335;28;1755;-54
2021/07/17 02:43:52;;;;;;;;;;;;;;;;;;5001337;28;1022;-55
2021/07/17 02:46:17;;;;;;;;;;;;;;;;;;4994618;28;1496;-54
2021/07/17 02:48:43;;;;;;;;;;;;;;;;;;4998514;28;2017;-54
2021/07/17 02:51:08;;;;;;;;;;;;;;;;;;4997009;28;1332;-54
2021/07/17 02:53:33;;;;;;;;;;;;;;;;;;5000439;28;1102;-54
2021/07/17 02:55:58;;;;;;;;;;;;;;;;;;4993343;28;1656;-54
2021/07/17 02:58:23;;;;;;;;;;;;;;;;;;4999584;28;1765;-54
2021/07/17 03:00:54;;;;;;;;;;;;;;;;;;5000730;28;1304;-54
2021/07/17 03:03:19;;;;;;;;;;;;;;;;;;4994768;28;1745;-53
2021/07/17 03:05:44;;;;;;;;;;;;;;;;;;4946604;28;1277;-52
2021/07/17 03:08:10;;;;;;;;;;;;;;;;;;4990397;28;1911;-55
2021/07/17 03:10:35;;;;;;;;;;;;;;;;;;4999604;28;1625;-54
2021/07/17 03:13:01;;;;;;;;;;;;;;;;;;4998348;28;1528;-54
2021/07/17 03:15:26;;;;;;;;;;;;;;;;;;4999490;28;1170;-54
2021/07/17 03:17:51;;;;;;;;;;;;;;;;;;4998808;28;1332;-54
2021/07/17 03:20:16;;;;;;;;;;;;;;;;;;4997576;28;1667;-54
2021/07/17 03:22:41;;;;;;;;;;;;;;;;;;4999586;28;1371;-54
2021/07/17 03:25:07;;;;;;;;;;;;;;;;;;4997873;28;1684;-53
2021/07/17 03:27:32;;;;;;;;;;;;;;;;;;4999660;28;1476;-52
2021/07/17 03:29:57;;;;;;;;;;;;;;;;;;4999080;28;1955;-54
2021/07/17 03:32:22;;;;;;;;;;;;;;;;;;4999224;28;1644;-53
2021/07/17 03:34:48;;;;;;;;;;;;;;;;;;4997539;28;1352;-54
2021/07/17 03:37:13;;;;;;;;;;;;;;;;;;4999577;28;1221;-53
2021/07/17 03:39:38;;;;;;;;;;;;;;;;;;4995491;28;1633;-54
2021/07/17 03:42:03;;;;;;;;;;;;;;;;;;5001264;28;1066;-53
2021/07/17 03:44:29;;;;;;;;;;;;;;;;;;4999475;28;1130;-53
2021/07/17 03:46:54;;;;;;;;;;;;;;;;;;4996422;28;2021;-54
2021/07/17 03:49:20;;;;;;;;;;;;;;;;;;5000434;28;1977;-54
2021/07/17 03:51:45;;;;;;;;;;;;;;;;;;5000732;28;1189;-54
2021/07/17 03:54:10;;;;;;;;;;;;;;;;;;4997974;28;1608;-54
2021/07/17 03:56:35;;;;;;;;;;;;;;;;;;4997098;28;1586;-54
2021/07/17 03:59:01;;;;;;;;;;;;;;;;;;4999044;28;1532;-54
2021/07/17 04:01:26;;;;;;;;;;;;;;;;;;5000267;28;1134;-54
2021/07/17 04:03:51;;;;;;;;;;;;;;;;;;4997586;28;1476;-53
2021/07/17 04:06:16;;;;;;;;;;;;;;;;;;5000097;28;1553;-54
2021/07/17 04:08:41;;;;;;;;;;;;;;;;;;4996631;28;1915;-53
2021/07/17 04:11:07;;;;;;;;;;;;;;;;;;4997901;28;1569;-54
2021/07/17 04:13:33;;;;;;;;;;;;;;;;;;4999454;28;1436;-52
2021/07/17 04:15:58;;;;;;;;;;;;;;;;;;4997002;28;1688;-54
2021/07/17 04:18:23;;;;;;;;;;;;;;;;;;4999006;28;1292;-54
2021/07/17 04:20:48;;;;;;;;;;;;;;;;;;5000417;28;1118;-54
2021/07/17 04:23:13;;;;;;;;;;;;;;;;;;4998073;28;2018;-54
2021/07/17 04:25:38;;;;;;;;;;;;;;;;;;4999370;28;1538;-54
2021/07/17 04:28:04;;;;;;;;;;;;;;;;;;4998064;28;1906;-53
2021/07/17 04:30:29;;;;;;;;;;;;;;;;;;4999522;28;1118;-54
2021/07/17 04:32:54;;;;;;;;;;;;;;;;;;4998304;28;1443;-54
2021/07/17 04:35:19;;;;;;;;;;;;;;;;;;4993900;28;1605;-54
2021/07/17 04:37:45;;;;;;;;;;;;;;;;;;4998257;28;1182;-54
2021/07/17 04:40:11;;;;;;;;;;;;;;;;;;4996385;28;1594;-54
2021/07/17 04:42:36;;;;;;;;;;;;;;;;;;4999571;28;1150;-54
2021/07/17 04:45:01;;;;;;;;;;;;;;;;;;5000585;28;1344;-54
2021/07/17 04:47:26;;;;;;;;;;;;;;;;;;5001988;28;1146;-53
2021/07/17 04:49:51;;;;;;;;;;;;;;;;;;4997797;28;1919;-54
2021/07/17 04:52:16;;;;;;;;;;;;;;;;;;5002879;28;1169;-53
2021/07/17 04:54:42;;;;;;;;;;;;;;;;;;5001076;28;1668;-53
2021/07/17 04:57:07;;;;;;;;;;;;;;;;;;5002466;28;969;-54
2021/07/17 04:59:32;;;;;;;;;;;;;;;;;;4996927;28;1576;-54
2021/07/17 05:01:57;;;;;;;;;;;;;;;;;;4999923;28;1495;-54
2021/07/17 05:04:22;;;;;;;;;;;;;;;;;;5002717;28;1190;-54
2021/07/17 05:06:48;;;;;;;;;;;;;;;;;;5001258;28;2067;-53
2021/07/17 05:09:13;;;;;;;;;;;;;;;;;;5000045;28;2173;-54
2021/07/17 05:11:39;;;;;;;;;;;;;;;;;;4999900;28;1515;-54
2021/07/17 05:14:04;;;;;;;;;;;;;;;;;;5003519;28;1146;-53
2021/07/17 05:16:29;;;;;;;;;;;;;;;;;;5002104;28;1177;-54
2021/07/17 05:18:54;;;;;;;;;;;;;;;;;;4997074;28;1608;-54
2021/07/17 05:21:20;;;;;;;;;;;;;;;;;;4983552;28;1111;-54
2021/07/17 05:23:45;;;;;;;;;;;;;;;;;;5000806;28;1682;-54
2021/07/17 05:26:10;;;;;;;;;;;;;;;;;;5001874;28;1639;-54
2021/07/17 05:28:35;;;;;;;;;;;;;;;;;;4998952;28;1910;-54
2021/07/17 05:31:01;;;;;;;;;;;;;;;;;;5001479;28;1240;-54
2021/07/17 05:33:26;;;;;;;;;;;;;;;;;;4999219;28;1428;-54
2021/07/17 05:35:51;;;;;;;;;;;;;;;;;;5002666;28;1460;-54
2021/07/17 05:38:16;;;;;;;;;;;;;;;;;;4999978;28;1613;-54
2021/07/17 05:40:41;;;;;;;;;;;;;;;;;;5000208;28;1641;-54
2021/07/17 05:43:07;;;;;;;;;;;;;;;;;;4996411;28;1760;-53
2021/07/17 05:45:32;;;;;;;;;;;;;;;;;;5001213;28;1032;-54
2021/07/17 05:47:57;;;;;;;;;;;;;;;;;;5000963;28;1985;-54
2021/07/17 05:50:22;;;;;;;;;;;;;;;;;;5001997;28;1379;-54
2021/07/17 05:52:48;;;;;;;;;;;;;;;;;;4998346;28;1593;-54
2021/07/17 05:55:13;;;;;;;;;;;;;;;;;;4998079;28;1595;-54
2021/07/17 05:57:38;;;;;;;;;;;;;;;;;;5001690;28;1304;-54
2021/07/17 06:00:04;;;;;;;;;;;;;;;;;;5038187;23;1925;-55
2021/07/17 06:02:30;;;;;;;;;;;;;;;;;;5017516;28;1570;-55
2021/07/17 06:04:55;;;;;;;;;;;;;;;;;;5020959;28;1808;-54
2021/07/17 06:07:21;;;;;;;;;;;;;;;;;;5020850;28;1241;-53
2021/07/17 06:09:46;;;;;;;;;;;;;;;;;;5018591;28;1914;-53
2021/07/17 06:12:11;;;;;;;;;;;;;;;;;;5020327;28;1170;-55
2021/07/17 06:14:37;;;;;;;;;;;;;;;;;;5018739;28;1799;-56
2021/07/17 06:17:02;;;;;;;;;;;;;;;;;;5020191;28;1169;-55
2021/07/17 06:19:27;;;;;;;;;;;;;;;;;;4998675;28;1751;-53
2021/07/17 06:21:52;;;;;;;;;;;;;;;;;;5022356;28;991;-53
2021/07/17 06:24:17;;;;;;;;;;;;;;;;;;5018164;28;1610;-54
2021/07/17 06:26:43;;;;;;;;;;;;;;;;;;5022216;28;1173;-53
2021/07/17 06:29:08;;;;;;;;;;;;;;;;;;5019030;28;1906;-53
2021/07/17 06:31:33;;;;;;;;;;;;;;;;;;5017861;28;1687;-53
2021/07/17 06:33:58;;;;;;;;;;;;;;;;;;5019977;28;1369;-55
2021/07/17 06:36:23;;;;;;;;;;;;;;;;;;5020661;28;1185;-54
2021/07/17 06:38:48;;;;;;;;;;;;;;;;;;5018109;28;1540;-55
2021/07/17 06:41:14;;;;;;;;;;;;;;;;;;5019325;28;1560;-55
2021/07/17 06:43:39;;;;;;;;;;;;;;;;;;5018042;28;1308;-55
2021/07/17 06:46:04;;;;;;;;;;;;;;;;;;5020667;28;1125;-54
2021/07/17 06:48:30;;;;;;;;;;;;;;;;;;5017701;28;1969;-55
2021/07/17 06:50:55;;;;;;;;;;;;;;;;;;5021367;28;1081;-54
2021/07/17 06:53:20;;;;;;;;;;;;;;;;;;5019872;28;1130;-54
2021/07/17 06:55:45;;;;;;;;;;;;;;;;;;5014623;28;1623;-54
2021/07/17 06:58:11;;;;;;;;;;;;;;;;;;5020396;28;1278;-55
2021/07/17 07:00:36;;;;;;;;;;;;;;;;;;5018488;28;1427;-54
2021/07/17 07:03:01;;;;;;;;;;;;;;;;;;5021243;28;1153;-55
2021/07/17 07:05:27;;;;;;;;;;;;;;;;;;5011923;28;1619;-55
2021/07/17 07:07:52;;;;;;;;;;;;;;;;;;5018938;28;1965;-54
2021/07/17 07:10:17;;;;;;;;;;;;;;;;;;5017148;28;1584;-55
2021/07/17 07:12:42;;;;;;;;;;;;;;;;;;5020788;28;1320;-54
2021/07/17 07:15:08;;;;;;;;;;;;;;;;;;5018104;28;1193;-55
2021/07/17 07:17:33;;;;;;;;;;;;;;;;;;5018496;28;1360;-53
2021/07/17 07:19:59;;;;;;;;;;;;;;;;;;5018616;28;1644;-53
2021/07/17 07:22:24;;;;;;;;;;;;;;;;;;5001869;28;1226;-54
2021/07/17 07:24:49;;;;;;;;;;;;;;;;;;4996984;28;1549;-53
2021/07/17 07:27:14;;;;;;;;;;;;;;;;;;5012284;28;1743;-53
2021/07/17 07:29:39;;;;;;;;;;;;;;;;;;5017119;28;1919;-53
2021/07/17 07:32:05;;;;;;;;;;;;;;;;;;5019036;28;1141;-53
2021/07/17 07:34:30;;;;;;;;;;;;;;;;;;5016151;28;1530;-53
2021/07/17 07:36:55;;;;;;;;;;;;;;;;;;5019007;28;1287;-54
2021/07/17 07:39:20;;;;;;;;;;;;;;;;;;5016107;28;1528;-53
2021/07/17 07:41:46;;;;;;;;;;;;;;;;;;5019877;28;1090;-54
2021/07/17 07:44:11;;;;;;;;;;;;;;;;;;5019217;28;1487;-55
2021/07/17 07:46:36;;;;;;;;;;;;;;;;;;5020316;28;1185;-53
2021/07/17 07:49:02;;;;;;;;;;;;;;;;;;5016883;28;1902;-53
2021/07/17 07:51:27;;;;;;;;;;;;;;;;;;5015510;28;1602;-53
2021/07/17 07:53:53;;;;;;;;;;;;;;;;;;5019254;28;1140;-54
2021/07/17 07:56:18;;;;;;;;;;;;;;;;;;5006052;28;1650;-55
2021/07/17 07:58:43;;;;;;;;;;;;;;;;;;5016762;28;1288;-53
2021/07/17 08:01:08;;;;;;;;;;;;;;;;;;5016741;28;1360;-54
2021/07/17 08:03:33;;;;;;;;;;;;;;;;;;5020481;28;1110;-54
2021/07/17 08:05:59;;;;;;;;;;;;;;;;;;5012899;28;1679;-54
2021/07/17 08:08:24;;;;;;;;;;;;;;;;;;5018837;28;1910;-55
2021/07/17 08:10:49;;;;;;;;;;;;;;;;;;5017781;28;1579;-55
2021/07/17 08:13:14;;;;;;;;;;;;;;;;;;5020191;28;1188;-53
2021/07/17 08:15:39;;;;;;;;;;;;;;;;;;5017837;28;1655;-53
2021/07/17 08:18:04;;;;;;;;;;;;;;;;;;5017205;28;1630;-55
2021/07/17 08:20:30;;;;;;;;;;;;;;;;;;5013808;28;1363;-55
2021/07/17 08:22:55;;;;;;;;;;;;;;;;;;5019256;28;1114;-55
2021/07/17 08:25:20;;;;;;;;;;;;;;;;;;5019641;28;1667;-53
2021/07/17 08:27:45;;;;;;;;;;;;;;;;;;5023347;28;1597;-53
2021/07/17 08:30:11;;;;;;;;;;;;;;;;;;5022173;28;1902;-55
2021/07/17 08:32:36;;;;;;;;;;;;;;;;;;5020904;28;2152;-55
2021/07/17 08:35:02;;;;;;;;;;;;;;;;;;5021806;28;1039;-52
2021/07/17 08:37:27;;;;;;;;;;;;;;;;;;5020924;28;1281;-55
2021/07/17 08:39:52;;;;;;;;;;;;;;;;;;5020089;28;1607;-53
2021/07/17 08:42:18;;;;;;;;;;;;;;;;;;5021823;28;1161;-55
2021/07/17 08:44:47;;;;;;;;;;;;;;;;;;5022610;28;1432;-56
2021/07/17 08:47:12;;;;;;;;;;;;;;;;;;5021637;28;1641;-53
2021/07/17 08:49:37;;;;;;;;;;;;;;;;;;5020171;28;1902;-55
2021/07/17 08:52:03;;;;;;;;;;;;;;;;;;5005595;28;1693;-55
2021/07/17 08:54:29;;;;;;;;;;;;;;;;;;5018668;28;1567;-53
2021/07/17 08:56:54;;;;;;;;;;;;;;;;;;5022878;28;1511;-55
2021/07/17 08:59:19;;;;;;;;;;;;;;;;;;5003208;28;1534;-53
2021/07/17 09:01:44;;;;;;;;;;;;;;;;;;5022248;28;1188;-55
2021/07/17 09:04:10;;;;;;;;;;;;;;;;;;5018967;28;1556;-55
2021/07/17 09:06:35;;;;;;;;;;;;;;;;;;5022554;28;1563;-53
2021/07/17 09:09:02;;;;;;;;;;;;;;;;;;5020489;28;1965;-52
2021/07/17 09:11:37;;;;;;;;;;;;;;;;;;5019301;28;1883;-52
2021/07/17 09:14:03;;;;;;;;;;;;;;;;;;5021779;28;1371;-54
2021/07/17 09:16:34;;;;;;;;;;;;;;;;;;5021685;28;1383;-52
2021/07/17 09:18:59;;;;;;;;;;;;;;;;;;5017855;28;1559;-53
2021/07/17 09:21:43;;;;;;;;;;;;;;;;;;5019977;28;1398;-54
2021/07/17 09:24:12;;;;;;;;;;;;;;;;;;5020030;28;1630;-54
2021/07/17 09:26:39;;;;;;;;;;;;;;;;;;5019578;28;1731;-54
2021/07/17 09:29:05;;;;;;;;;;;;;;;;;;5021365;28;1970;-54
2021/07/17 09:31:34;;;;;;;;;;;;;;;;;;5021243;28;1165;-54
2021/07/17 09:34:02;;;;;;;;;;;;;;;;;;5016621;28;1670;-52
2021/07/17 09:36:27;;;;;;;;;;;;;;;;;;5020056;28;1178;-55
2021/07/17 09:38:52;;;;;;;;;;;;;;;;;;5019673;28;1344;-54
2021/07/17 09:41:18;;;;;;;;;;;;;;;;;;5019252;28;1576;-52
2021/07/17 09:43:43;;;;;;;;;;;;;;;;;;5019796;28;1478;-51
2021/07/17 09:46:21;;;;;;;;;;;;;;;;;;5023034;28;1213;-53
2021/07/17 09:48:52;;;;;;;;;;;;;;;;;;5019143;28;1906;-54
2021/07/17 09:51:20;;;;;;;;;;;;;;;;;;5021367;28;1149;-54
2021/07/17 09:53:49;;;;;;;;;;;;;;;;;;5019822;28;1470;-53
2021/07/17 09:56:15;;;;;;;;;;;;;;;;;;5018108;28;1623;-52
2021/07/17 09:58:41;;;;;;;;;;;;;;;;;;5018278;28;1451;-54
2021/07/17 10:01:13;;;;;;;;;;;;;;;;;;5020752;28;1169;-55
2021/07/17 10:03:39;;;;;;;;;;;;;;;;;;5018159;28;1647;-54
2021/07/17 10:06:04;;;;;;;;;;;;;;;;;;5018644;28;1393;-54
2021/07/17 10:08:32;;;;;;;;;;;;;;;;;;5003839;28;1915;-53
2021/07/17 10:10:59;;;;;;;;;;;;;;;;;;5017472;28;1651;-55
2021/07/17 10:13:27;;;;;;;;;;;;;;;;;;5020665;28;1206;-54
2021/07/17 10:15:52;;;;;;;;;;;;;;;;;;5020857;28;1107;-55
2021/07/17 10:18:25;;;;;;;;;;;;;;;;;;5002480;28;1384;-54
2021/07/17 10:20:50;;;;;;;;;;;;;;;;;;5003005;28;1592;-55
2021/07/17 10:23:16;;;;;;;;;;;;;;;;;;5019044;28;1481;-53
2021/07/17 10:25:41;;;;;;;;;;;;;;;;;;5001167;28;1584;-54
2021/07/17 10:28:06;;;;;;;;;;;;;;;;;;5001106;28;1910;-52
2021/07/17 10:30:31;;;;;;;;;;;;;;;;;;5004013;28;1544;-54
2021/07/17 10:32:56;;;;;;;;;;;;;;;;;;5001132;28;1633;-52
2021/07/17 10:35:22;;;;;;;;;;;;;;;;;;5002531;28;1632;-52
2021/07/17 10:37:48;;;;;;;;;;;;;;;;;;5018950;28;1474;-52
2021/07/17 10:40:14;;;;;;;;;;;;;;;;;;5021176;28;1616;-54
2021/07/17 10:42:43;;;;;;;;;;;;;;;;;;5021567;28;1185;-54
2021/07/17 10:45:08;;;;;;;;;;;;;;;;;;5002584;28;1055;-54
2021/07/17 10:47:37;;;;;;;;;;;;;;;;;;5019645;28;1564;-54
2021/07/17 10:50:02;;;;;;;;;;;;;;;;;;5017323;28;1911;-52
2021/07/17 10:52:37;;;;;;;;;;;;;;;;;;5020726;28;1133;-52
2021/07/17 10:55:20;;;;;;;;;;;;;;;;;;5013475;28;1675;-53
2021/07/17 10:57:46;;;;;;;;;;;;;;;;;;5015300;28;1434;-53
2021/07/17 11:00:11;;;;;;;;;;;;;;;;;;5020468;28;1401;-53
2021/07/17 11:02:36;;;;;;;;;;;;;;;;;;5019125;28;1177;-54
2021/07/17 11:05:02;;;;;;;;;;;;;;;;;;4999869;28;1631;-54
2021/07/17 11:07:27;;;;;;;;;;;;;;;;;;5020596;28;1158;-52
2021/07/17 11:09:55;;;;;;;;;;;;;;;;;;5016912;28;1915;-53
2021/07/17 11:12:27;;;;;;;;;;;;;;;;;;5020208;28;1113;-54
2021/07/17 11:14:52;;;;;;;;;;;;;;;;;;5015277;28;1548;-53
2021/07/17 11:17:37;;;;;;;;;;;;;;;;;;5020267;28;1122;-55
2021/07/17 11:20:20;;;;;;;;;;;;;;;;;;5017902;28;1701;-54
2021/07/17 11:22:46;;;;;;;;;;;;;;;;;;5021306;28;1162;-54
2021/07/17 11:25:20;;;;;;;;;;;;;;;;;;5016121;28;1605;-54
2021/07/17 11:27:45;;;;;;;;;;;;;;;;;;5014809;28;1656;-54
2021/07/17 11:30:14;;;;;;;;;;;;;;;;;;5020466;28;1978;-53
2021/07/17 11:32:39;;;;;;;;;;;;;;;;;;5013311;28;1571;-53
2021/07/17 11:35:05;;;;;;;;;;;;;;;;;;5000411;28;1772;-52
2021/07/17 11:37:30;;;;;;;;;;;;;;;;;;5001379;28;1460;-53
2021/07/17 11:39:56;;;;;;;;;;;;;;;;;;5016494;28;1485;-54
2021/07/17 11:42:21;;;;;;;;;;;;;;;;;;5019852;28;1177;-54
2021/07/17 11:44:48;;;;;;;;;;;;;;;;;;5012741;28;1557;-53
2021/07/17 11:47:16;;;;;;;;;;;;;;;;;;5019975;28;1125;-53
2021/07/17 11:49:42;;;;;;;;;;;;;;;;;;5017302;28;1910;-52
2021/07/17 11:52:08;;;;;;;;;;;;;;;;;;5020045;28;1130;-55
2021/07/17 11:54:34;;;;;;;;;;;;;;;;;;5015255;28;1611;-52
2021/07/17 11:57:19;;;;;;;;;;;;;;;;;;5020385;28;1679;-54
2021/07/17 11:59:51;;;;;;;;;;;;;;;;;;5023228;28;1361;-53
2021/07/17 12:02:16;;;;;;;;;;;;;;;;;;5023474;28;1099;-54
2021/07/17 12:04:43;;;;;;;;;;;;;;;;;;5019329;28;1524;-54
2021/07/17 12:07:11;;;;;;;;;;;;;;;;;;5023060;28;1197;-55
2021/07/17 12:09:40;;;;;;;;;;;;;;;;;;5021331;28;1918;-54
2021/07/17 12:12:12;;;;;;;;;;;;;;;;;;5022586;28;1456;-55
2021/07/17 12:14:37;;;;;;;;;;;;;;;;;;5022819;28;1792;-53
2021/07/17 12:17:03;;;;;;;;;;;;;;;;;;5022685;28;1142;-52
2021/07/17 12:19:28;;;;;;;;;;;;;;;;;;5002746;28;1514;-52
2021/07/17 12:21:56;;;;;;;;;;;;;;;;;;5023676;28;1077;-52
2021/07/17 12:24:22;;;;;;;;;;;;;;;;;;5021362;28;1615;-53
2021/07/17 12:26:47;;;;;;;;;;;;;;;;;;5001180;28;1569;-52
2021/07/17 12:29:13;;;;;;;;;;;;;;;;;;5022459;28;1981;-53
2021/07/17 12:31:38;;;;;;;;;;;;;;;;;;5021565;28;1311;-52
2021/07/17 12:34:08;;;;;;;;;;;;;;;;;;5018803;28;1571;-54
2021/07/17 12:36:39;;;;;;;;;;;;;;;;;;5022875;28;1228;-54
2021/07/17 12:39:05;;;;;;;;;;;;;;;;;;5020316;28;1612;-54
2021/07/17 12:41:33;;;;;;;;;;;;;;;;;;5021854;28;1754;-52
2021/07/17 12:43:59;;;;;;;;;;;;;;;;;;5020831;28;1292;-54
2021/07/17 12:46:31;;;;;;;;;;;;;;;;;;5023687;28;1145;-53
2021/07/17 12:48:57;;;;;;;;;;;;;;;;;;5017020;28;1981;-54
2021/07/17 12:51:32;;;;;;;;;;;;;;;;;;5022955;28;1181;-54
2021/07/17 12:53:58;;;;;;;;;;;;;;;;;;5018985;28;1299;-54
2021/07/17 12:56:31;;;;;;;;;;;;;;;;;;5019391;28;1813;-54
2021/07/17 12:58:56;;;;;;;;;;;;;;;;;;5016525;28;1506;-54
2021/07/17 13:01:21;;;;;;;;;;;;;;;;;;5004008;28;1143;-52
2021/07/17 13:03:46;;;;;;;;;;;;;;;;;;5022478;28;1185;-53
2021/07/17 13:06:12;;;;;;;;;;;;;;;;;;5020202;28;1731;-53
2021/07/17 13:08:38;;;;;;;;;;;;;;;;;;5020916;28;1977;-52
2021/07/17 13:11:03;;;;;;;;;;;;;;;;;;5020250;28;1571;-52
2021/07/17 13:13:32;;;;;;;;;;;;;;;;;;5020843;28;1351;-52
2021/07/17 13:15:58;;;;;;;;;;;;;;;;;;5023035;28;1089;-52
2021/07/17 13:18:24;;;;;;;;;;;;;;;;;;5018507;28;1560;-52
2021/07/17 13:20:56;;;;;;;;;;;;;;;;;;5020309;28;1193;-54
2021/07/17 13:23:21;;;;;;;;;;;;;;;;;;5002837;28;1820;-52
2021/07/17 13:25:46;;;;;;;;;;;;;;;;;;5022066;28;1651;-54
2021/07/17 13:28:12;;;;;;;;;;;;;;;;;;5020117;28;1967;-52
2021/07/17 13:30:38;;;;;;;;;;;;;;;;;;5021786;28;1292;-53
2021/07/17 13:33:04;;;;;;;;;;;;;;;;;;5018030;28;1586;-54
2021/07/17 13:35:31;;;;;;;;;;;;;;;;;;5023400;28;1177;-53
2021/07/17 13:37:59;;;;;;;;;;;;;;;;;;5021225;28;1089;-54
2021/07/17 13:40:24;;;;;;;;;;;;;;;;;;5018213;28;1556;-53
2021/07/17 13:42:49;;;;;;;;;;;;;;;;;;5021858;28;1166;-53
2021/07/17 13:45:15;;;;;;;;;;;;;;;;;;5021679;28;1483;-55
2021/07/17 13:47:41;;;;;;;;;;;;;;;;;;5022759;28;1146;-53
2021/07/17 13:50:25;;;;;;;;;;;;;;;;;;5019156;28;1910;-55
2021/07/17 13:52:56;;;;;;;;;;;;;;;;;;5019276;28;1498;-52
2021/07/17 13:55:24;;;;;;;;;;;;;;;;;;5018499;28;1592;-54
2021/07/17 13:57:51;;;;;;;;;;;;;;;;;;5011594;28;1539;-54
2021/07/17 14:00:17;;;;;;;;;;;;;;;;;;5002250;28;1424;-54
2021/07/17 14:02:42;;;;;;;;;;;;;;;;;;5019942;28;1121;-54
2021/07/17 14:05:09;;;;;;;;;;;;;;;;;;5022049;28;1126;-53
2021/07/17 14:07:34;;;;;;;;;;;;;;;;;;5015766;28;1770;-52
2021/07/17 14:09:59;;;;;;;;;;;;;;;;;;5017149;28;1997;-54
2021/07/17 14:12:26;;;;;;;;;;;;;;;;;;5017872;28;1475;-52
2021/07/17 14:14:54;;;;;;;;;;;;;;;;;;5021994;28;1355;-54
2021/07/17 14:17:20;;;;;;;;;;;;;;;;;;5020361;28;1249;-53
2021/07/17 14:19:46;;;;;;;;;;;;;;;;;;5013566;28;1596;-54
2021/07/17 14:22:11;;;;;;;;;;;;;;;;;;5018375;28;1411;-55
2021/07/17 14:24:37;;;;;;;;;;;;;;;;;;5018986;28;1576;-52
2021/07/17 14:27:02;;;;;;;;;;;;;;;;;;5019245;28;1424;-53
2021/07/17 14:29:27;;;;;;;;;;;;;;;;;;5022206;28;1890;-53
2021/07/17 14:31:52;;;;;;;;;;;;;;;;;;5019521;28;1290;-58
2021/07/17 14:34:17;;;;;;;;;;;;;;;;;;5018181;28;1634;-52
2021/07/17 14:36:43;;;;;;;;;;;;;;;;;;5019916;28;1244;-53
2021/07/17 14:39:08;;;;;;;;;;;;;;;;;;5020030;28;1608;-50
2021/07/17 14:41:33;;;;;;;;;;;;;;;;;;5019695;28;1268;-54
2021/07/17 14:43:58;;;;;;;;;;;;;;;;;;5016392;28;1405;-52
2021/07/17 14:46:23;;;;;;;;;;;;;;;;;;5020492;28;1141;-54
2021/07/17 14:48:48;;;;;;;;;;;;;;;;;;5017253;28;1902;-54
2021/07/17 14:51:14;;;;;;;;;;;;;;;;;;5021747;28;1252;-52
2021/07/17 14:53:39;;;;;;;;;;;;;;;;;;5018710;28;1200;-52
2021/07/17 14:56:04;;;;;;;;;;;;;;;;;;5016197;28;1539;-54
2021/07/17 14:58:30;;;;;;;;;;;;;;;;;;5020991;28;1312;-54
2021/07/17 15:00:55;;;;;;;;;;;;;;;;;;5020206;28;1435;-54
2021/07/17 15:03:20;;;;;;;;;;;;;;;;;;5018827;28;1572;-54
2021/07/17 15:05:47;;;;;;;;;;;;;;;;;;5020128;28;1141;-53
2021/07/17 15:08:12;;;;;;;;;;;;;;;;;;5019446;28;1910;-52
2021/07/17 15:10:38;;;;;;;;;;;;;;;;;;5019563;28;1567;-53
2021/07/17 15:13:03;;;;;;;;;;;;;;;;;;5017901;28;1367;-52
2021/07/17 15:15:28;;;;;;;;;;;;;;;;;;5019088;28;1308;-53
2021/07/17 15:17:53;;;;;;;;;;;;;;;;;;5019935;28;1074;-54
2021/07/17 15:20:19;;;;;;;;;;;;;;;;;;5016668;28;1627;-54
2021/07/17 15:22:45;;;;;;;;;;;;;;;;;;5021079;28;1205;-53
2021/07/17 15:25:10;;;;;;;;;;;;;;;;;;5016581;28;1552;-53
2021/07/17 15:27:36;;;;;;;;;;;;;;;;;;5019068;28;1138;-54
2021/07/17 15:30:01;;;;;;;;;;;;;;;;;;5019084;28;1973;-54
2021/07/17 15:32:26;;;;;;;;;;;;;;;;;;5019206;28;1201;-54
2021/07/17 15:34:51;;;;;;;;;;;;;;;;;;5015902;28;1599;-53
2021/07/17 15:37:16;;;;;;;;;;;;;;;;;;5020222;28;1340;-54
2021/07/17 15:39:42;;;;;;;;;;;;;;;;;;5017780;28;1588;-54
2021/07/17 15:42:07;;;;;;;;;;;;;;;;;;5019781;28;1596;-54
2021/07/17 15:44:32;;;;;;;;;;;;;;;;;;5019697;28;1200;-54
2021/07/17 15:46:57;;;;;;;;;;;;;;;;;;5016614;28;1490;-52
2021/07/17 15:49:22;;;;;;;;;;;;;;;;;;5020431;28;1961;-55
2021/07/17 15:51:48;;;;;;;;;;;;;;;;;;5015620;28;1557;-52
2021/07/17 15:54:15;;;;;;;;;;;;;;;;;;5016651;28;1638;-53
2021/07/17 15:56:40;;;;;;;;;;;;;;;;;;5017040;28;1572;-54
2021/07/17 15:59:05;;;;;;;;;;;;;;;;;;5017756;28;1327;-54
2021/07/17 16:01:31;;;;;;;;;;;;;;;;;;5019898;28;1117;-54
2021/07/17 16:03:56;;;;;;;;;;;;;;;;;;5015668;28;1591;-54
2021/07/17 16:06:21;;;;;;;;;;;;;;;;;;5019544;28;1177;-52
2021/07/17 16:08:46;;;;;;;;;;;;;;;;;;5015241;28;1918;-52
2021/07/17 16:11:11;;;;;;;;;;;;;;;;;;5018928;28;1560;-53
2021/07/17 16:13:36;;;;;;;;;;;;;;;;;;5017139;28;1422;-52
2021/07/17 16:16:02;;;;;;;;;;;;;;;;;;5018397;28;1201;-55
2021/07/17 16:18:27;;;;;;;;;;;;;;;;;;5014897;28;1539;-52
2021/07/17 16:20:52;;;;;;;;;;;;;;;;;;5019918;28;1094;-54
2021/07/17 16:23:19;;;;;;;;;;;;;;;;;;5019161;28;1366;-53
2021/07/17 16:25:44;;;;;;;;;;;;;;;;;;5015498;28;1608;-53
2021/07/17 16:28:09;;;;;;;;;;;;;;;;;;5018620;28;1510;-52
2021/07/17 16:30:35;;;;;;;;;;;;;;;;;;5020039;28;1903;-52
2021/07/17 16:33:00;;;;;;;;;;;;;;;;;;5019000;28;1253;-54
2021/07/17 16:35:25;;;;;;;;;;;;;;;;;;5019046;28;1587;-54
2021/07/17 16:37:50;;;;;;;;;;;;;;;;;;5014208;28;1528;-52
2021/07/17 16:40:16;;;;;;;;;;;;;;;;;;5017056;28;1620;-53
2021/07/17 16:42:41;;;;;;;;;;;;;;;;;;5016900;28;1430;-51
2021/07/17 16:45:07;;;;;;;;;;;;;;;;;;5020622;28;1451;-53
2021/07/17 16:47:32;;;;;;;;;;;;;;;;;;5020380;28;1572;-55
2021/07/17 16:49:57;;;;;;;;;;;;;;;;;;5019892;28;1906;-54
2021/07/17 16:52:22;;;;;;;;;;;;;;;;;;5010651;28;1575;-53
2021/07/17 16:54:47;;;;;;;;;;;;;;;;;;5020082;28;1544;-54